Fort Benning, GA

1:57 AM EST on December 25, 2014 (GMT -0500)
RAWS FORT BENNING GA US | Change Station
CLOSE
Current Station
Personal Weather Station
Location: Fort Benning, GA
Elevation: 466 ft
Nearby Weather Stations

Elev 466 ft 32.40 °N, 84.87 °W | Updated 47 minutes ago

Overcast
Overcast
48 °F
Feels Like 45 °F
N
7
Wind Variable Wind from WNW
Gusts 17.0 mph

Today
High -- | Low -- °F
--% Chance of Precip.
Yesterday
High -- | Low -- °F
Precip. -- in
7:39 AM 5:40 PM
Waxing Crescent, 14% visible
Pressure 30.00 in
Visibility 10.0 miles
Clouds Overcast 4400 ft
Windchill 45 °F
Dew Point 40 °F
Humidity 75%
Rainfall 1.34 in
Snow Depth Not available.
UV 0 out of 12
Pollen .40 out of 12
Air Quality Not available.
Flu Activity Not available.
METAR KCSG 250651Z AUTO 30008KT 10SM OVC044 08/03 A3000 RMK AO2 SLP157 T00830033

More Conditions Fewer Conditions

Pressure 30.00 in
Visibility 10.0 miles
Clouds Overcast 4400 ft
Windchill 45 °F
Dew Point 40 °F
Humidity 75%
Rainfall 1.34 in
Snow Depth Not available.
UV 0 out of 12
Pollen .40 out of 12
Air Quality Not available.
Flu Activity Not available.
METAR KCSG 250651Z AUTO 30008KT 10SM OVC044 08/03 A3000 RMK AO2 SLP157 T00830033

More Conditions Fewer Conditions

10-Day Weather Forecast

Almanac

Astronomy

Dec. 25, 2014 Rise Set
Actual Time
Civil Twilight
Nautical Twilight
Astronomical Twilight
Moon
Length of Visible Light
Length of Day
Tomorrow will be .
, % of the Moon is Illuminated

Today's Extremes

State Highs State Lows

Community

WunderPhotos

Upload Photos

1,780,249 photos uploaded!

WunderBlogs® & News

Nearby

Air Quality

  Air Quality AQ Index Pollutant
Not available.

Snow Depth

Station Depth Elevation

Earthquake Activity

City Distance Mag. Time & Date
Minimum magnitude displayed is 2.5.

Coastal Water Temperatures

Place Temperature

Nearby Weather Stations